Time;durP1;ratioP1;P1;durP2;ratioP2;P2;SDS_P1;SDS_P2;PMS_P1;PMS_P2;Temp;Humidity;BMP_temperature;BMP_pressure;BME280_temperature;BME280_humidity;BME280_pressure;Samples;Min_cycle;Max_cycle;Signal;HPM_P1;HPM_P2
2022/04/23 00:01:11;;;;;;;18.90;11.40;;;9.70;99.90;;;;;;5092259;28;20253;-67
2022/04/23 00:03:38;;;;;;;19.77;11.77;;;9.70;99.90;;;;;;5092439;28;20731;-67
2022/04/23 00:06:05;;;;;;;17.03;10.37;;;9.60;99.90;;;;;;5092472;28;20348;-67
2022/04/23 00:08:33;;;;;;;19.17;11.10;;;9.70;99.90;;;;;;5092465;28;20199;-66
2022/04/23 00:11:00;;;;;;;17.97;11.50;;;9.60;99.90;;;;;;5091985;28;20211;-68
2022/04/23 00:13:27;;;;;;;18.33;11.57;;;9.60;99.90;;;;;;5092106;28;20200;-68
2022/04/23 00:15:54;;;;;;;15.57;10.70;;;9.60;99.90;;;;;;5092088;28;20204;-68
2022/04/23 00:18:21;;;;;;;17.77;11.00;;;9.60;99.90;;;;;;5092313;28;20210;-68
2022/04/23 00:20:48;;;;;;;14.93;10.27;;;9.60;99.90;;;;;;5092105;28;20204;-69
2022/04/23 00:23:15;;;;;;;15.07;10.23;;;9.60;99.90;;;;;;5092237;28;20229;-68
2022/04/23 00:25:45;;;;;;;14.80;10.03;;;9.60;99.90;;;;;;5092405;28;20203;-68
2022/04/23 00:28:11;;;;;;;18.03;10.50;;;9.60;99.90;;;;;;5092016;28;20295;-67
2022/04/23 00:30:39;;;;;;;14.73;9.93;;;9.50;99.90;;;;;;5092224;28;20226;-68
2022/04/23 00:33:06;;;;;;;13.50;9.23;;;9.50;99.90;;;;;;5091773;28;20212;-68
2022/04/23 00:35:33;;;;;;;14.37;10.20;;;9.50;99.90;;;;;;5092190;28;20565;-67
2022/04/23 00:38:00;;;;;;;13.53;9.37;;;9.50;99.90;;;;;;5091849;28;20239;-68
2022/04/23 00:40:27;;;;;;;18.10;10.23;;;9.50;99.90;;;;;;5091973;28;20215;-69
2022/04/23 00:42:58;;;;;;;12.73;9.03;;;9.40;99.90;;;;;;5091870;28;20212;-68
2022/04/23 00:45:25;;;;;;;16.63;10.67;;;9.40;99.90;;;;;;5091877;28;20184;-66
2022/04/23 00:47:53;;;;;;;13.23;9.77;;;9.40;99.90;;;;;;5091869;28;20572;-67
2022/04/23 00:50:21;;;;;;;13.30;10.10;;;9.40;99.90;;;;;;5091619;28;20242;-69
2022/04/23 00:52:49;;;;;;;13.20;9.73;;;9.40;99.90;;;;;;5091741;28;20220;-66
2022/04/23 00:55:16;;;;;;;16.50;10.30;;;9.30;99.90;;;;;;5091983;28;20234;-66
2022/04/23 00:57:43;;;;;;;12.67;9.53;;;9.30;99.90;;;;;;5091605;28;20231;-67
2022/04/23 01:00:13;;;;;;;15.50;10.30;;;9.30;99.90;;;;;;5091832;28;20572;-67
2022/04/23 01:02:40;;;;;;;16.57;10.33;;;9.30;99.90;;;;;;5091790;28;20204;-67
2022/04/23 01:05:08;;;;;;;16.57;10.20;;;9.30;99.90;;;;;;5091590;28;20212;-67
2022/04/23 01:07:38;;;;;;;13.77;9.87;;;9.30;99.90;;;;;;5091640;28;20211;-67
2022/04/23 01:10:06;;;;;;;14.90;9.50;;;9.20;99.90;;;;;;5092309;28;20203;-67
2022/04/23 01:12:35;;;;;;;15.00;9.63;;;9.20;99.90;;;;;;5091753;28;20204;-66
2022/04/23 01:15:03;;;;;;;15.60;9.70;;;9.20;99.90;;;;;;5091755;28;20548;-68
2022/04/23 01:17:32;;;;;;;11.70;8.90;;;9.20;99.90;;;;;;5091496;28;20228;-68
2022/04/23 01:19:58;;;;;;;12.23;9.00;;;9.10;99.90;;;;;;5091400;28;20211;-67
2022/04/23 01:22:27;;;;;;;12.17;8.53;;;9.10;99.90;;;;;;5091640;28;20204;-67
2022/04/23 01:24:55;;;;;;;14.00;9.13;;;9.10;99.90;;;;;;5091622;28;20222;-67
2022/04/23 01:27:25;;;;;;;12.83;9.17;;;9.10;99.90;;;;;;5091397;28;20200;-68
2022/04/23 01:29:52;;;;;;;14.10;9.07;;;9.10;99.90;;;;;;5091653;28;20208;-67
2022/04/23 01:32:18;;;;;;;14.03;9.60;;;9.10;99.90;;;;;;5092431;28;20204;-68
2022/04/23 01:34:45;;;;;;;13.83;8.60;;;9.00;99.90;;;;;;5095184;28;20582;-67
2022/04/23 01:37:13;;;;;;;13.03;8.70;;;9.00;99.90;;;;;;5094938;28;20216;-66
2022/04/23 01:39:41;;;;;;;12.40;8.63;;;9.00;99.90;;;;;;5095076;28;20347;-69
2022/04/23 01:42:08;;;;;;;11.77;8.17;;;8.90;99.90;;;;;;5095194;28;20727;-68
2022/04/23 01:44:35;;;;;;;12.73;8.43;;;8.90;99.90;;;;;;5095189;28;20299;-66
2022/04/23 01:47:02;;;;;;;12.00;7.73;;;8.90;99.90;;;;;;5094854;28;20223;-67
2022/04/23 01:49:29;;;;;;;11.10;8.17;;;8.90;99.90;;;;;;5094622;28;20243;-67
2022/04/23 01:51:56;;;;;;;13.03;8.00;;;8.80;99.90;;;;;;5094920;28;20566;-68
2022/04/23 01:54:22;;;;;;;12.80;7.90;;;8.80;99.90;;;;;;5094924;28;20211;-68
2022/04/23 01:56:50;;;;;;;12.03;7.93;;;8.80;99.90;;;;;;5094839;28;20279;-68
2022/04/23 01:59:17;;;;;;;10.87;7.90;;;8.80;99.90;;;;;;5094863;28;20273;-67
2022/04/23 02:01:44;;;;;;;10.07;7.47;;;8.80;99.90;;;;;;5094664;28;20556;-69
2022/04/23 02:04:11;;;;;;;12.30;8.00;;;8.70;99.90;;;;;;5094487;28;20207;-68
2022/04/23 02:06:37;;;;;;;11.60;7.30;;;8.70;99.90;;;;;;5094243;28;20200;-68
2022/04/23 02:09:04;;;;;;;11.37;8.10;;;8.70;99.90;;;;;;5094648;28;20204;-68
2022/04/23 02:11:31;;;;;;;12.97;8.27;;;8.70;99.90;;;;;;5094234;28;20215;-68
2022/04/23 02:14:02;;;;;;;10.60;7.37;;;8.70;99.90;;;;;;5094590;28;20253;-68
2022/04/23 02:16:29;;;;;;;11.40;7.97;;;8.60;99.90;;;;;;5094125;28;20203;-68
2022/04/23 02:18:57;;;;;;;10.70;7.07;;;8.60;99.90;;;;;;5094343;28;20216;-68
2022/04/23 02:21:24;;;;;;;9.10;7.43;;;8.60;99.90;;;;;;5094231;28;20704;-68
2022/04/23 02:23:51;;;;;;;9.80;7.40;;;8.60;99.90;;;;;;5094419;28;20578;-67
2022/04/23 02:26:20;;;;;;;11.97;8.10;;;8.60;99.90;;;;;;5094054;28;20204;-68
2022/04/23 02:28:47;;;;;;;10.30;7.73;;;8.60;99.90;;;;;;5094310;28;20200;-68
2022/04/23 02:31:15;;;;;;;11.27;7.57;;;8.60;99.90;;;;;;5094248;28;20442;-68
2022/04/23 02:33:44;;;;;;;10.77;8.20;;;8.50;99.90;;;;;;5094008;28;20204;-68
2022/04/23 02:36:11;;;;;;;13.17;8.07;;;8.50;99.90;;;;;;5094207;28;20293;-66
2022/04/23 02:38:40;;;;;;;9.57;7.93;;;8.50;99.90;;;;;;5093650;28;20701;-68
2022/04/23 02:41:07;;;;;;;12.37;7.93;;;8.40;99.90;;;;;;5093760;28;20210;-68
2022/04/23 02:43:35;;;;;;;11.53;8.63;;;8.40;99.90;;;;;;5093427;28;20254;-68
2022/04/23 02:46:02;;;;;;;12.67;8.50;;;8.40;99.90;;;;;;5094030;28;20633;-67
2022/04/23 02:48:30;;;;;;;11.10;7.97;;;8.30;99.90;;;;;;5093552;28;20246;-69
2022/04/23 02:50:57;;;;;;;10.20;7.90;;;8.30;99.90;;;;;;5093528;28;20200;-68
2022/04/23 02:53:24;;;;;;;12.10;8.40;;;8.30;99.90;;;;;;5093564;28;20230;-67
2022/04/23 02:55:52;;;;;;;14.70;8.40;;;8.20;99.90;;;;;;5093850;28;20211;-68
2022/04/23 02:58:19;;;;;;;11.50;8.20;;;8.20;99.90;;;;;;5093747;28;20278;-68
2022/04/23 03:00:46;;;;;;;12.67;7.87;;;8.20;99.90;;;;;;5093743;28;20573;-67
2022/04/23 03:03:13;;;;;;;10.90;7.93;;;8.20;99.90;;;;;;5093636;28;20200;-68
2022/04/23 03:05:42;;;;;;;12.20;7.90;;;8.10;99.90;;;;;;5094104;28;20261;-67
2022/04/23 03:08:10;;;;;;;11.63;8.40;;;8.10;99.90;;;;;;5093250;28;20196;-68
2022/04/23 03:10:39;;;;;;;12.33;8.73;;;8.10;99.90;;;;;;5093487;28;20208;-68
2022/04/23 03:13:07;;;;;;;14.10;8.23;;;8.10;99.90;;;;;;5093313;28;20212;-67
2022/04/23 03:15:35;;;;;;;12.63;7.70;;;8.10;99.90;;;;;;5093243;28;20298;-67
2022/04/23 03:18:07;;;;;;;12.87;8.47;;;8.10;99.90;;;;;;5093249;28;20224;-68
2022/04/23 03:20:34;;;;;;;12.70;8.40;;;8.10;99.90;;;;;;5093008;28;20633;-67
2022/04/23 03:23:02;;;;;;;10.20;8.03;;;8.10;99.90;;;;;;5093172;28;20207;-67
2022/04/23 03:25:29;;;;;;;11.67;8.20;;;8.10;99.90;;;;;;5093038;28;20238;-68
2022/04/23 03:27:56;;;;;;;10.77;7.70;;;8.00;99.90;;;;;;5092751;28;20202;-68
2022/04/23 03:30:23;;;;;;;11.33;7.43;;;8.10;99.90;;;;;;5092818;28;20653;-67
2022/04/23 03:32:50;;;;;;;11.90;8.13;;;8.00;99.90;;;;;;5092905;28;20204;-69
2022/04/23 03:35:17;;;;;;;13.37;8.30;;;8.00;99.90;;;;;;5092455;28;20258;-68
2022/04/23 03:37:44;;;;;;;11.93;7.90;;;8.00;99.90;;;;;;5092897;28;20577;-69
2022/04/23 03:40:13;;;;;;;13.40;7.80;;;8.00;99.90;;;;;;5092817;28;20613;-69
2022/04/23 03:42:41;;;;;;;11.63;8.47;;;8.00;99.90;;;;;;5093012;28;20479;-68
2022/04/23 03:45:09;;;;;;;13.83;8.33;;;8.00;99.90;;;;;;5092801;28;20544;-67
2022/04/23 03:47:36;;;;;;;11.67;8.40;;;8.00;99.90;;;;;;5092453;28;20204;-69
2022/04/23 03:50:05;;;;;;;12.37;8.23;;;8.00;99.90;;;;;;5092298;28;20239;-67
2022/04/23 03:52:32;;;;;;;12.87;8.90;;;8.00;99.90;;;;;;5091147;28;20231;-67
2022/04/23 03:54:59;;;;;;;12.00;8.60;;;7.90;99.90;;;;;;5092082;28;20614;-67
2022/04/23 03:57:28;;;;;;;11.60;8.43;;;8.00;99.90;;;;;;5092008;28;20215;-67
2022/04/23 03:59:54;;;;;;;12.80;8.23;;;7.90;99.90;;;;;;5092454;28;20204;-68
2022/04/23 04:02:21;;;;;;;14.20;8.37;;;7.90;99.90;;;;;;5091869;28;20203;-66
2022/04/23 04:04:48;;;;;;;12.63;8.33;;;7.90;99.90;;;;;;5092413;28;20219;-66
2022/04/23 04:07:19;;;;;;;13.17;8.57;;;8.00;99.90;;;;;;5092265;28;20626;-67
2022/04/23 04:09:46;;;;;;;12.07;8.97;;;8.00;99.90;;;;;;5092377;28;20529;-67
2022/04/23 04:12:12;;;;;;;15.37;8.50;;;8.00;99.90;;;;;;5092062;28;20661;-68
2022/04/23 04:14:42;;;;;;;12.93;8.13;;;8.00;99.90;;;;;;5092457;28;20210;-68
2022/04/23 04:17:10;;;;;;;12.13;8.13;;;8.00;99.90;;;;;;5091654;28;20303;-66
2022/04/23 04:19:38;;;;;;;12.77;8.23;;;8.00;99.90;;;;;;5092116;28;20212;-68
2022/04/23 04:22:06;;;;;;;11.70;8.47;;;8.00;99.90;;;;;;5092122;28;20598;-67
2022/04/23 04:24:33;;;;;;;11.83;8.23;;;8.00;99.90;;;;;;5092139;28;20244;-67
2022/04/23 04:27:01;;;;;;;13.07;8.80;;;8.10;99.90;;;;;;5092100;28;20281;-68
2022/04/23 04:29:28;;;;;;;13.00;8.73;;;8.10;99.90;;;;;;5092305;28;20215;-68
2022/04/23 04:31:57;;;;;;;13.60;9.00;;;8.00;99.90;;;;;;5092096;28;20231;-67
2022/04/23 04:34:28;;;;;;;11.17;8.37;;;8.10;99.90;;;;;;5091835;28;20597;-67
2022/04/23 04:37:04;;;;;;;11.80;8.40;;;8.10;99.90;;;;;;5091822;28;20200;-68
2022/04/23 04:39:31;;;;;;;13.50;8.03;;;8.10;99.90;;;;;;5092135;28;20190;-67
2022/04/23 04:41:58;;;;;;;11.13;8.37;;;8.10;99.90;;;;;;5092045;28;20611;-67
2022/04/23 04:44:25;;;;;;;12.63;8.20;;;8.10;99.90;;;;;;5091894;28;20235;-69
2022/04/23 04:46:52;;;;;;;13.10;9.00;;;8.10;99.90;;;;;;5091959;28;20200;-68
2022/04/23 04:49:22;;;;;;;11.53;8.17;;;8.20;99.90;;;;;;5091390;28;20251;-68
2022/04/23 04:51:49;;;;;;;11.03;8.30;;;8.20;99.90;;;;;;5091842;28;20316;-68
2022/04/23 04:54:17;;;;;;;12.67;8.53;;;8.20;99.90;;;;;;5091420;28;20212;-67
2022/04/23 04:56:44;;;;;;;13.93;8.57;;;8.20;99.90;;;;;;5091852;28;20303;-67
2022/04/23 04:59:11;;;;;;;13.07;8.33;;;8.20;99.90;;;;;;5091618;28;20247;-67
2022/04/23 05:01:38;;;;;;;11.93;8.33;;;8.20;99.90;;;;;;5091515;28;20544;-67
2022/04/23 05:04:05;;;;;;;13.30;8.60;;;8.30;99.90;;;;;;5091193;28;20303;-67
2022/04/23 05:06:34;;;;;;;11.87;8.30;;;8.30;99.90;;;;;;5091889;28;20211;-68
2022/04/23 05:09:01;;;;;;;11.33;7.97;;;8.30;99.90;;;;;;5095029;28;20204;-70
2022/04/23 05:11:27;;;;;;;12.10;8.20;;;8.40;99.90;;;;;;5095465;28;20203;-67
2022/04/23 05:13:55;;;;;;;13.47;8.80;;;8.40;99.90;;;;;;5095295;28;20208;-69
2022/04/23 05:16:22;;;;;;;12.43;8.10;;;8.50;99.90;;;;;;5095429;28;20200;-67
2022/04/23 05:18:48;;;;;;;13.43;8.73;;;8.60;99.90;;;;;;5095604;28;20223;-68
2022/04/23 05:21:16;;;;;;;14.43;9.10;;;8.60;99.90;;;;;;5095372;28;20203;-68
2022/04/23 05:23:44;;;;;;;13.87;8.30;;;8.60;99.90;;;;;;5095149;28;20203;-67
2022/04/23 05:26:10;;;;;;;13.53;8.77;;;8.70;99.90;;;;;;5094991;28;20232;-68
2022/04/23 05:28:39;;;;;;;13.80;8.53;;;8.70;99.90;;;;;;5095487;28;20200;-67
2022/04/23 05:31:06;;;;;;;12.67;8.50;;;8.80;99.90;;;;;;5095200;28;20233;-67
2022/04/23 05:33:33;;;;;;;12.93;8.60;;;8.80;99.90;;;;;;5095050;28;20204;-68
2022/04/23 05:36:00;;;;;;;14.33;8.60;;;8.80;99.90;;;;;;5095136;28;20687;-68
2022/04/23 05:38:26;;;;;;;11.53;8.33;;;8.90;99.90;;;;;;5094719;28;20231;-68
2022/04/23 05:40:54;;;;;;;13.63;8.20;;;8.90;99.90;;;;;;5094715;28;20211;-69
2022/04/23 05:43:21;;;;;;;13.17;8.40;;;9.00;99.90;;;;;;5095198;28;20204;-67
2022/04/23 05:45:50;;;;;;;13.07;8.80;;;9.00;99.90;;;;;;5095032;28;20450;-67
2022/04/23 05:48:17;;;;;;;12.67;8.90;;;9.00;99.90;;;;;;5094856;28;20567;-67
2022/04/23 05:50:44;;;;;;;14.70;8.60;;;9.00;99.90;;;;;;5095020;28;20201;-68
2022/04/23 05:53:11;;;;;;;14.17;8.60;;;9.10;99.90;;;;;;5095167;28;20223;-69
2022/04/23 05:55:38;;;;;;;13.73;8.80;;;9.10;99.90;;;;;;5095753;28;20250;-69
2022/04/23 05:58:06;;;;;;;11.47;8.13;;;9.20;99.90;;;;;;5095258;28;20232;-69
2022/04/23 06:00:33;;;;;;;13.80;8.67;;;9.20;99.90;;;;;;5096001;28;20218;-69
2022/04/23 06:03:00;;;;;;;12.07;8.53;;;9.30;99.90;;;;;;5096764;28;20650;-68
2022/04/23 06:05:27;;;;;;;12.60;8.40;;;9.30;99.90;;;;;;5094734;28;20223;-68
2022/04/23 06:07:54;;;;;;;12.20;9.00;;;9.40;99.90;;;;;;5094202;28;20196;-68
2022/04/23 06:10:21;;;;;;;13.80;8.90;;;9.50;99.90;;;;;;5094589;28;20541;-68
2022/04/23 06:12:47;;;;;;;14.80;8.70;;;9.50;99.90;;;;;;5094588;28;20204;-68
2022/04/23 06:15:16;;;;;;;13.20;8.37;;;9.60;99.90;;;;;;5094401;28;20204;-69
2022/04/23 06:17:42;;;;;;;13.80;9.23;;;9.70;99.90;;;;;;5093734;28;20204;-68
2022/04/23 06:20:10;;;;;;;16.17;8.23;;;9.80;99.90;;;;;;5094262;28;20204;-69
2022/04/23 06:22:37;;;;;;;13.07;8.73;;;9.90;99.90;;;;;;5094418;28;20204;-67
2022/04/23 06:25:05;;;;;;;13.83;9.17;;;10.00;99.90;;;;;;5094098;28;20200;-70
2022/04/23 06:27:32;;;;;;;16.00;9.27;;;10.10;99.90;;;;;;5093943;28;20206;-70
2022/04/23 06:29:59;;;;;;;12.57;8.50;;;10.20;99.90;;;;;;5094099;28;20210;-67
2022/04/23 06:32:27;;;;;;;12.03;8.23;;;10.30;99.90;;;;;;5094104;28;20214;-68
2022/04/23 06:34:54;;;;;;;11.70;8.00;;;10.40;99.90;;;;;;5093537;28;20223;-68
2022/04/23 06:37:21;;;;;;;12.47;8.20;;;10.50;99.90;;;;;;5094086;28;20662;-69
2022/04/23 06:39:47;;;;;;;11.43;8.03;;;10.60;99.90;;;;;;5094011;28;20237;-68
2022/04/23 06:42:14;;;;;;;10.27;7.90;;;10.60;99.90;;;;;;5093988;28;20211;-68
2022/04/23 06:44:41;;;;;;;11.97;8.10;;;10.80;99.90;;;;;;5093856;28;20225;-68
2022/04/23 06:47:08;;;;;;;11.30;7.83;;;10.80;99.90;;;;;;5093640;28;20677;-68
2022/04/23 06:49:36;;;;;;;11.27;7.33;;;10.90;99.90;;;;;;5093325;28;20317;-68
2022/04/23 06:52:03;;;;;;;12.93;7.57;;;11.00;99.90;;;;;;5093449;28;20220;-68
2022/04/23 06:54:30;;;;;;;10.90;7.67;;;11.00;99.90;;;;;;5093699;28;20203;-68
2022/04/23 06:56:57;;;;;;;11.20;7.77;;;11.10;99.90;;;;;;5093128;28;20208;-68
2022/04/23 06:59:24;;;;;;;11.13;7.73;;;11.10;99.90;;;;;;5093454;28;20227;-69
2022/04/23 07:01:51;;;;;;;11.33;7.90;;;11.10;99.90;;;;;;5093106;28;20213;-68
2022/04/23 07:04:17;;;;;;;13.47;7.63;;;11.10;99.90;;;;;;5093320;28;20212;-68
2022/04/23 07:06:45;;;;;;;11.70;7.60;;;11.20;99.90;;;;;;5093094;28;20200;-68
2022/04/23 07:09:12;;;;;;;10.47;7.77;;;11.20;99.90;;;;;;5093423;28;20196;-69
2022/04/23 07:11:39;;;;;;;9.63;6.97;;;11.30;99.90;;;;;;5093031;28;20208;-68
2022/04/23 07:14:07;;;;;;;12.53;7.60;;;11.40;99.90;;;;;;5093346;28;20611;-69
2022/04/23 07:16:34;;;;;;;11.27;7.43;;;11.50;99.90;;;;;;5093138;28;20208;-69
2022/04/23 07:19:00;;;;;;;8.00;6.40;;;11.60;99.90;;;;;;5092867;28;20257;-67
2022/04/23 07:21:27;;;;;;;10.23;6.90;;;11.70;99.90;;;;;;5093209;28;20200;-68
2022/04/23 07:24:05;;;;;;;10.50;6.93;;;11.80;99.90;;;;;;5092803;28;20212;-67
2022/04/23 07:26:34;;;;;;;9.30;6.63;;;11.90;99.90;;;;;;5093157;28;20189;-68
2022/04/23 07:29:02;;;;;;;11.23;6.67;;;11.90;99.90;;;;;;5092886;28;20291;-69
2022/04/23 07:31:30;;;;;;;8.97;6.73;;;12.10;99.90;;;;;;5092153;28;20240;-68
2022/04/23 07:39:27;;;;;;;9.47;6.30;;;12.40;99.90;;;;;;5092818;28;20416;-69
2022/04/23 07:41:54;;;;;;;8.77;6.70;;;12.50;99.90;;;;;;5092594;28;20204;-68
2022/04/23 07:44:22;;;;;;;9.13;6.67;;;12.70;99.90;;;;;;5092843;28;20681;-69
2022/04/23 07:46:49;;;;;;;8.77;6.30;;;12.80;99.90;;;;;;5092365;28;20203;-68
2022/04/23 07:49:15;;;;;;;8.57;6.47;;;12.90;99.90;;;;;;5092312;28;20263;-68
2022/04/23 07:51:42;;;;;;;10.33;6.73;;;12.90;99.90;;;;;;5092596;28;20242;-69
2022/04/23 07:54:09;;;;;;;9.60;7.20;;;13.00;99.90;;;;;;5092699;28;20211;-69
2022/04/23 07:56:38;;;;;;;8.07;6.23;;;13.10;99.90;;;;;;5092339;28;20549;-68
2022/04/23 07:59:05;;;;;;;8.03;6.07;;;13.10;99.90;;;;;;5092354;28;20638;-68
2022/04/23 08:01:32;;;;;;;8.77;6.43;;;13.20;99.90;;;;;;5092860;28;20203;-69
2022/04/23 08:03:59;;;;;;;7.70;5.90;;;13.30;99.90;;;;;;5092607;28;20207;-70
2022/04/23 08:06:26;;;;;;;11.50;5.97;;;13.40;99.90;;;;;;5092173;28;20207;-68
2022/04/23 08:08:52;;;;;;;8.50;5.83;;;13.50;99.90;;;;;;5092123;28;20202;-69
2022/04/23 08:11:22;;;;;;;8.80;6.20;;;13.50;99.90;;;;;;5092432;28;20204;-68
2022/04/23 08:13:50;;;;;;;8.73;5.83;;;13.50;99.90;;;;;;5092043;28;20234;-68
2022/04/23 08:16:18;;;;;;;14.90;6.20;;;13.60;99.90;;;;;;5092382;28;20294;-69
2022/04/23 08:18:45;;;;;;;7.37;5.30;;;13.70;99.90;;;;;;5091996;28;20338;-68
2022/04/23 08:21:11;;;;;;;6.30;4.83;;;13.80;99.90;;;;;;5092197;28;20207;-68
2022/04/23 08:23:38;;;;;;;6.90;4.80;;;13.90;99.90;;;;;;5092111;28;20207;-68
2022/04/23 08:26:05;;;;;;;7.53;5.27;;;13.90;99.90;;;;;;5092330;28;20207;-69
2022/04/23 08:31:18;;;;;;;7.57;4.97;;;13.90;99.90;;;;;;5092158;28;20191;-68
2022/04/23 08:34:00;;;;;;;6.17;4.83;;;13.90;99.90;;;;;;5092009;28;20563;-68
2022/04/23 08:36:31;;;;;;;6.53;5.00;;;13.90;99.90;;;;;;5092238;28;20590;-68
2022/04/23 08:38:59;;;;;;;7.23;5.00;;;13.90;99.90;;;;;;5091796;28;20249;-68
2022/04/23 08:41:29;;;;;;;6.13;4.77;;;14.00;99.90;;;;;;5094101;28;20203;-67
2022/04/23 08:44:05;;;;;;;7.47;4.87;;;14.10;99.90;;;;;;5099173;28;20289;-67
2022/04/23 08:46:34;;;;;;;6.10;5.07;;;14.10;99.90;;;;;;5098541;28;20191;-68
2022/04/23 08:49:08;;;;;;;5.73;4.70;;;14.10;99.90;;;;;;5098417;28;20231;-67
2022/04/23 08:51:36;;;;;;;7.20;4.97;;;14.20;99.90;;;;;;5098770;28;20231;-68
2022/04/23 08:54:07;;;;;;;5.83;4.57;;;14.30;99.90;;;;;;5098706;28;20204;-69
2022/04/23 08:56:35;;;;;;;6.20;4.30;;;14.40;99.90;;;;;;5098523;28;20231;-69
2022/04/23 08:59:02;;;;;;;9.13;4.70;;;14.40;99.90;;;;;;5098229;28;20227;-68
2022/04/23 09:01:32;;;;;;;5.87;4.73;;;14.40;99.90;;;;;;5098021;28;20200;-68
2022/04/23 09:04:01;;;;;;;7.47;4.70;;;14.40;99.90;;;;;;5098716;28;20598;-68
2022/04/23 09:06:38;;;;;;;8.63;5.20;;;14.50;99.90;;;;;;5098296;28;20311;-68
2022/04/23 09:09:12;;;;;;;7.57;4.73;;;14.50;99.90;;;;;;5098414;28;20196;-67
2022/04/23 09:11:40;;;;;;;6.03;4.60;;;14.50;99.90;;;;;;5098406;28;20295;-68
2022/04/23 09:14:09;;;;;;;8.00;4.53;;;14.50;99.90;;;;;;5098476;28;20239;-68
2022/04/23 09:25:07;;;;;;;5.87;4.60;;;14.70;99.90;;;;;;5098252;28;20562;-68
2022/04/23 09:27:34;;;;;;;5.53;4.47;;;14.70;99.90;;;;;;5097713;28;20211;-68
2022/04/23 09:30:02;;;;;;;5.33;4.50;;;14.80;99.90;;;;;;5098052;28;20232;-68
2022/04/23 09:32:29;;;;;;;6.10;4.40;;;14.90;99.90;;;;;;5098476;28;20203;-68
2022/04/23 09:35:07;;;;;;;5.53;4.23;;;14.90;99.90;;;;;;5097852;28;20207;-68
2022/04/23 09:40:19;;;;;;;5.60;4.10;;;15.00;99.90;;;;;;5097549;28;20223;-69
2022/04/23 09:42:56;;;;;;;5.60;4.47;;;15.10;99.90;;;;;;5097911;28;20599;-69
2022/04/23 09:45:27;;;;;;;5.40;4.37;;;15.10;99.90;;;;;;5097768;28;20188;-67
2022/04/23 09:47:54;;;;;;;10.03;4.17;;;15.20;99.90;;;;;;5097999;28;20278;-68
2022/04/23 09:50:22;;;;;;;6.23;4.50;;;15.20;99.90;;;;;;5097653;28;20277;-68
2022/04/23 09:52:50;;;;;;;5.53;4.33;;;15.30;99.90;;;;;;5096392;28;20238;-69
2022/04/23 09:55:20;;;;;;;4.53;3.80;;;15.30;99.90;;;;;;5095006;28;20399;-68
2022/04/23 09:57:48;;;;;;;5.43;4.20;;;15.30;99.90;;;;;;5094988;28;20658;-68
2022/04/23 10:00:15;;;;;;;4.50;3.93;;;15.40;99.90;;;;;;5094504;28;20220;-69
2022/04/23 10:02:44;;;;;;;4.87;3.80;;;15.50;99.90;;;;;;5094623;28;20240;-67
2022/04/23 10:05:12;;;;;;;11.77;4.10;;;15.60;99.90;;;;;;5094802;28;20564;-68
2022/04/23 10:07:44;;;;;;;3.87;3.30;;;15.70;99.90;;;;;;5094672;28;20573;-69
2022/04/23 10:10:14;;;;;;;5.60;3.70;;;15.80;99.90;;;;;;5094680;28;20626;-67
2022/04/23 10:12:45;;;;;;;5.43;3.60;;;15.90;99.90;;;;;;5094059;28;20212;-68
2022/04/23 10:15:14;;;;;;;6.30;3.93;;;16.00;99.90;;;;;;5094638;28;20196;-68
2022/04/23 10:17:41;;;;;;;5.33;4.00;;;16.00;99.90;;;;;;5094428;28;20669;-69
2022/04/23 10:20:11;;;;;;;4.20;3.43;;;15.90;99.90;;;;;;5094102;28;20217;-69
2022/04/23 10:22:55;;;;;;;3.77;3.27;;;15.90;99.90;;;;;;5094150;28;20211;-68
2022/04/23 10:25:31;;;;;;;5.97;3.93;;;16.00;99.90;;;;;;5094152;28;20188;-69
2022/04/23 10:27:59;;;;;;;4.20;3.50;;;16.10;99.90;;;;;;5094322;28;20605;-70
2022/04/23 10:30:28;;;;;;;6.73;3.20;;;16.10;99.90;;;;;;5094144;28;20204;-67
2022/04/23 10:32:54;;;;;;;6.13;3.47;;;16.20;99.90;;;;;;5094162;28;20654;-68
2022/04/23 10:35:34;;;;;;;3.77;3.13;;;16.30;99.90;;;;;;5094034;28;20211;-69
2022/04/23 10:38:23;;;;;;;6.97;3.10;;;16.40;99.90;;;;;;5094037;28;20203;-68
2022/04/23 10:40:55;;;;;;;4.67;3.23;;;16.50;99.90;;;;;;5094131;28;20307;-69
2022/04/23 10:43:22;;;;;;;6.47;3.27;;;16.60;99.90;;;;;;5093910;28;20242;-68
2022/04/23 10:45:49;;;;;;;6.17;2.70;;;16.70;99.90;;;;;;5093789;28;20679;-70
2022/04/23 10:48:27;;;;;;;3.73;3.17;;;16.70;99.90;;;;;;5093452;28;20210;-68
2022/04/23 10:51:05;;;;;;;4.07;2.97;;;16.80;99.90;;;;;;5094073;28;20237;-68
2022/04/23 10:53:57;;;;;;;4.37;3.10;;;16.90;99.90;;;;;;5093312;28;20202;-69
2022/04/23 10:56:26;;;;;;;4.27;2.90;;;17.10;99.90;;;;;;5088781;28;20238;-68
2022/04/23 10:58:53;;;;;;;6.77;2.97;;;17.20;99.90;;;;;;5093519;28;20299;-69
2022/04/23 11:01:25;;;;;;;4.63;3.07;;;17.20;99.90;;;;;;5092941;28;20221;-68
2022/04/23 11:04:12;;;;;;;5.20;2.80;;;17.30;99.90;;;;;;5093064;28;20207;-69
2022/04/23 11:12:37;;;;;;;5.23;2.97;;;17.30;99.90;;;;;;5093460;28;20272;-67
2022/04/23 11:15:15;;;;;;;4.00;2.70;;;17.40;99.90;;;;;;5093131;28;20207;-68
2022/04/23 11:17:58;;;;;;;6.30;2.70;;;17.40;99.90;;;;;;5093075;28;20198;-69
2022/04/23 11:20:38;;;;;;;3.93;2.70;;;17.40;99.90;;;;;;5092810;28;20219;-68
2022/04/23 11:23:07;;;;;;;3.57;2.70;;;17.30;99.90;;;;;;5092966;28;20194;-68
2022/04/23 11:25:35;;;;;;;5.27;3.30;;;17.30;99.90;;;;;;5093509;28;20209;-68
2022/04/23 11:28:23;;;;;;;3.17;2.77;;;17.40;99.90;;;;;;5093392;28;20206;-70
2022/04/23 11:30:51;;;;;;;4.37;2.90;;;17.40;99.90;;;;;;5093325;28;20194;-68
2022/04/23 11:33:18;;;;;;;4.77;3.20;;;17.40;99.90;;;;;;5092813;28;20299;-68
2022/04/23 11:35:45;;;;;;;4.03;2.80;;;17.50;99.90;;;;;;5093966;28;20257;-70
2022/04/23 11:38:23;;;;;;;3.30;2.83;;;17.50;99.90;;;;;;5092185;28;20216;-68
2022/04/23 11:40:52;;;;;;;7.57;2.70;;;17.50;99.90;;;;;;5092682;28;20687;-68
2022/04/23 11:43:37;;;;;;;5.47;2.87;;;17.60;99.90;;;;;;5092692;28;20217;-68
2022/04/23 11:46:06;;;;;;;4.50;2.67;;;17.60;99.90;;;;;;5092641;28;20198;-69
2022/04/23 11:48:43;;;;;;;3.97;2.73;;;17.60;99.90;;;;;;5092374;28;20246;-68
2022/04/23 11:51:12;;;;;;;3.37;2.53;;;17.50;99.90;;;;;;5092115;28;20227;-68
2022/04/23 11:53:58;;;;;;;4.27;2.73;;;17.50;99.90;;;;;;5092714;28;20619;-68
2022/04/23 11:56:32;;;;;;;4.10;2.83;;;17.50;99.90;;;;;;5092450;28;20248;-69
2022/04/23 11:59:03;;;;;;;5.87;2.57;;;17.50;99.90;;;;;;5092433;28;20196;-67
2022/04/23 12:01:30;;;;;;;4.17;2.60;;;17.50;99.90;;;;;;5092690;28;20220;-69
2022/04/23 12:03:58;;;;;;;6.37;2.60;;;17.50;99.90;;;;;;5092556;28;20248;-68
2022/04/23 12:06:26;;;;;;;4.80;2.97;;;17.50;99.90;;;;;;5092258;28;20211;-70
2022/04/23 12:09:05;;;;;;;4.27;2.83;;;17.60;99.90;;;;;;5092349;28;20201;-67
2022/04/23 12:11:33;;;;;;;3.73;2.40;;;17.60;99.90;;;;;;5092126;28;20197;-68
2022/04/23 12:14:01;;;;;;;3.13;2.50;;;17.60;99.90;;;;;;5091919;28;20218;-68
2022/04/23 12:16:36;;;;;;;2.87;2.40;;;17.50;99.90;;;;;;5092016;28;20213;-67
2022/04/23 12:19:05;;;;;;;3.43;2.47;;;17.50;99.90;;;;;;5092193;28;20215;-69
2022/04/23 12:21:32;;;;;;;5.13;2.70;;;17.50;99.90;;;;;;5091835;28;20223;-68
2022/04/23 12:24:00;;;;;;;4.47;2.67;;;17.50;99.90;;;;;;5091971;28;20275;-67
2022/04/23 12:26:34;;;;;;;4.63;2.50;;;17.60;99.90;;;;;;5092147;28;20211;-68
2022/04/23 12:43:21;;;;;;;3.43;2.67;;;17.90;99.90;;;;;;5091847;28;20368;-68
2022/04/23 12:45:49;;;;;;;5.90;2.60;;;17.90;99.90;;;;;;5092015;28;20217;-67
2022/04/23 12:48:16;;;;;;;3.73;2.50;;;17.90;99.90;;;;;;5091516;28;20230;-68
2022/04/23 12:50:43;;;;;;;3.63;2.53;;;17.80;99.80;;;;;;5091854;28;20585;-68
2022/04/23 12:53:11;;;;;;;3.40;2.40;;;17.80;99.20;;;;;;5091666;28;20728;-68
2022/04/23 12:55:49;;;;;;;4.23;2.27;;;17.70;99.10;;;;;;5091950;28;20595;-69
2022/04/23 12:58:16;;;;;;;2.67;2.30;;;17.70;99.00;;;;;;5091414;28;20192;-68
2022/04/23 13:00:45;;;;;;;5.20;2.50;;;17.70;99.00;;;;;;5091372;28;20223;-69
2022/04/23 13:03:23;;;;;;;4.70;2.63;;;17.80;99.40;;;;;;5091260;28;20205;-69
2022/04/23 13:05:50;;;;;;;4.87;2.70;;;17.80;98.20;;;;;;5091682;28;20285;-69
2022/04/23 13:11:24;;;;;;;5.23;2.57;;;17.80;97.70;;;;;;5091394;28;20185;-68
2022/04/23 13:13:48;;;;;;;5.20;2.10;;;17.80;98.00;;;;;;5091189;28;20239;-69
2022/04/23 13:16:16;;;;;;;3.97;2.33;;;17.80;98.00;;;;;;5091559;28;20212;-68
2022/04/23 13:18:43;;;;;;;3.90;2.33;;;17.80;97.50;;;;;;5091209;28;20209;-68
2022/04/23 13:21:10;;;;;;;4.23;2.40;;;17.80;98.20;;;;;;5091352;28;20724;-68
2022/04/23 13:23:37;;;;;;;3.00;2.40;;;17.80;98.70;;;;;;5091636;28;20228;-68
2022/04/23 13:26:03;;;;;;;5.63;2.70;;;17.90;97.60;;;;;;5090984;28;20230;-70
2022/04/23 13:28:30;;;;;;;3.87;2.40;;;17.90;98.00;;;;;;5092749;28;20299;-68
2022/04/23 13:30:57;;;;;;;5.70;2.47;;;17.80;98.00;;;;;;5094834;28;20252;-67
2022/04/23 13:33:25;;;;;;;5.50;2.50;;;17.80;97.90;;;;;;5094989;28;20208;-69
2022/04/23 13:35:52;;;;;;;6.17;2.50;;;17.90;98.20;;;;;;5094803;28;20234;-68